sensor_id;sensor_type;location;lat;lon;timestamp;P1;durP1;ratioP1;P2;durP2;ratioP2
77520;SDS011;66633;47.628;19.158;2024-02-26T00:00:02;24.52;;;12.55;;
77520;SDS011;66633;47.628;19.158;2024-02-26T00:02:28;21.00;;;11.43;;
77520;SDS011;66633;47.628;19.158;2024-02-26T00:04:53;19.70;;;10.70;;
77520;SDS011;66633;47.628;19.158;2024-02-26T00:07:18;19.92;;;11.18;;
77520;SDS011;66633;47.628;19.158;2024-02-26T00:09:43;18.60;;;9.95;;
77520;SDS011;66633;47.628;19.158;2024-02-26T00:12:09;19.37;;;10.47;;
77520;SDS011;66633;47.628;19.158;2024-02-26T00:14:34;19.87;;;10.67;;
77520;SDS011;66633;47.628;19.158;2024-02-26T00:16:59;20.17;;;10.10;;
77520;SDS011;66633;47.628;19.158;2024-02-26T00:19:24;16.63;;;9.60;;
77520;SDS011;66633;47.628;19.158;2024-02-26T00:21:50;20.07;;;10.23;;
77520;SDS011;66633;47.628;19.158;2024-02-26T00:24:15;21.30;;;11.27;;
77520;SDS011;66633;47.628;19.158;2024-02-26T00:26:41;19.03;;;10.30;;
77520;SDS011;66633;47.628;19.158;2024-02-26T00:29:06;17.25;;;9.85;;
77520;SDS011;66633;47.628;19.158;2024-02-26T00:31:31;18.10;;;9.75;;
77520;SDS011;66633;47.628;19.158;2024-02-26T00:33:57;21.38;;;10.93;;
77520;SDS011;66633;47.628;19.158;2024-02-26T00:36:23;22.65;;;12.63;;
77520;SDS011;66633;47.628;19.158;2024-02-26T00:38:48;18.77;;;10.65;;
77520;SDS011;66633;47.628;19.158;2024-02-26T00:41:19;17.05;;;9.15;;
77520;SDS011;66633;47.628;19.158;2024-02-26T00:43:44;18.48;;;10.93;;
77520;SDS011;66633;47.628;19.158;2024-02-26T00:46:10;18.33;;;9.80;;
77520;SDS011;66633;47.628;19.158;2024-02-26T00:48:35;22.33;;;9.30;;
77520;SDS011;66633;47.628;19.158;2024-02-26T00:51:00;19.90;;;10.07;;
77520;SDS011;66633;47.628;19.158;2024-02-26T00:53:26;21.67;;;9.77;;
77520;SDS011;66633;47.628;19.158;2024-02-26T00:55:51;19.02;;;10.40;;
77520;SDS011;66633;47.628;19.158;2024-02-26T00:58:16;17.40;;;9.38;;
77520;SDS011;66633;47.628;19.158;2024-02-26T01:00:41;16.20;;;8.82;;
77520;SDS011;66633;47.628;19.158;2024-02-26T01:03:07;19.30;;;9.23;;
77520;SDS011;66633;47.628;19.158;2024-02-26T01:05:32;18.53;;;10.10;;
77520;SDS011;66633;47.628;19.158;2024-02-26T01:07:58;19.00;;;9.45;;
77520;SDS011;66633;47.628;19.158;2024-02-26T01:10:23;14.97;;;8.10;;
77520;SDS011;66633;47.628;19.158;2024-02-26T01:12:49;19.25;;;10.63;;
77520;SDS011;66633;47.628;19.158;2024-02-26T01:15:14;16.90;;;8.93;;
77520;SDS011;66633;47.628;19.158;2024-02-26T01:17:39;16.00;;;7.78;;
77520;SDS011;66633;47.628;19.158;2024-02-26T01:20:05;17.85;;;9.65;;
77520;SDS011;66633;47.628;19.158;2024-02-26T01:22:30;19.65;;;9.57;;
77520;SDS011;66633;47.628;19.158;2024-02-26T01:24:55;17.97;;;9.00;;
77520;SDS011;66633;47.628;19.158;2024-02-26T01:27:21;16.92;;;9.43;;
77520;SDS011;66633;47.628;19.158;2024-02-26T01:29:51;20.77;;;10.60;;
77520;SDS011;66633;47.628;19.158;2024-02-26T01:32:16;20.30;;;10.00;;
77520;SDS011;66633;47.628;19.158;2024-02-26T01:34:42;18.85;;;9.60;;
77520;SDS011;66633;47.628;19.158;2024-02-26T01:37:07;17.43;;;8.53;;
77520;SDS011;66633;47.628;19.158;2024-02-26T01:39:32;18.50;;;9.70;;
77520;SDS011;66633;47.628;19.158;2024-02-26T01:41:57;19.00;;;9.50;;
77520;SDS011;66633;47.628;19.158;2024-02-26T01:44:23;15.17;;;8.57;;
77520;SDS011;66633;47.628;19.158;2024-02-26T01:46:48;19.52;;;8.73;;
77520;SDS011;66633;47.628;19.158;2024-02-26T01:49:13;17.60;;;9.05;;
77520;SDS011;66633;47.628;19.158;2024-02-26T01:51:39;21.45;;;10.50;;
77520;SDS011;66633;47.628;19.158;2024-02-26T01:54:06;22.92;;;11.25;;
77520;SDS011;66633;47.628;19.158;2024-02-26T01:56:32;17.98;;;9.15;;
77520;SDS011;66633;47.628;19.158;2024-02-26T01:58:58;19.25;;;8.60;;
77520;SDS011;66633;47.628;19.158;2024-02-26T02:01:27;20.48;;;9.27;;
77520;SDS011;66633;47.628;19.158;2024-02-26T02:03:54;17.02;;;9.15;;
77520;SDS011;66633;47.628;19.158;2024-02-26T02:06:21;22.20;;;11.73;;
77520;SDS011;66633;47.628;19.158;2024-02-26T02:08:46;20.85;;;11.48;;
77520;SDS011;66633;47.628;19.158;2024-02-26T02:11:11;19.33;;;10.10;;
77520;SDS011;66633;47.628;19.158;2024-02-26T02:13:37;18.40;;;9.68;;
77520;SDS011;66633;47.628;19.158;2024-02-26T02:16:02;19.08;;;9.57;;
77520;SDS011;66633;47.628;19.158;2024-02-26T02:18:28;23.23;;;11.35;;
77520;SDS011;66633;47.628;19.158;2024-02-26T02:20:53;18.80;;;9.33;;
77520;SDS011;66633;47.628;19.158;2024-02-26T02:23:18;15.90;;;8.75;;
77520;SDS011;66633;47.628;19.158;2024-02-26T02:25:44;16.38;;;9.15;;
77520;SDS011;66633;47.628;19.158;2024-02-26T02:28:09;15.60;;;8.17;;
77520;SDS011;66633;47.628;19.158;2024-02-26T02:30:34;16.90;;;9.15;;
77520;SDS011;66633;47.628;19.158;2024-02-26T02:33:00;20.05;;;10.18;;
77520;SDS011;66633;47.628;19.158;2024-02-26T02:35:26;20.05;;;10.65;;
77520;SDS011;66633;47.628;19.158;2024-02-26T02:37:51;17.83;;;9.53;;
77520;SDS011;66633;47.628;19.158;2024-02-26T02:40:17;15.95;;;9.23;;
77520;SDS011;66633;47.628;19.158;2024-02-26T02:42:42;15.13;;;7.47;;
77520;SDS011;66633;47.628;19.158;2024-02-26T02:45:07;14.27;;;7.83;;
77520;SDS011;66633;47.628;19.158;2024-02-26T02:47:35;14.90;;;8.32;;
77520;SDS011;66633;47.628;19.158;2024-02-26T02:50:00;16.77;;;8.40;;
77520;SDS011;66633;47.628;19.158;2024-02-26T02:52:26;17.98;;;8.18;;
77520;SDS011;66633;47.628;19.158;2024-02-26T02:54:51;14.85;;;6.53;;
77520;SDS011;66633;47.628;19.158;2024-02-26T02:57:16;11.20;;;6.13;;
77520;SDS011;66633;47.628;19.158;2024-02-26T02:59:42;12.33;;;5.83;;
77520;SDS011;66633;47.628;19.158;2024-02-26T03:02:07;13.65;;;6.80;;
77520;SDS011;66633;47.628;19.158;2024-02-26T03:04:32;15.40;;;6.40;;
77520;SDS011;66633;47.628;19.158;2024-02-26T03:06:57;14.02;;;6.88;;
77520;SDS011;66633;47.628;19.158;2024-02-26T03:09:23;13.77;;;7.82;;
77520;SDS011;66633;47.628;19.158;2024-02-26T03:11:48;13.88;;;6.50;;
77520;SDS011;66633;47.628;19.158;2024-02-26T03:14:14;15.55;;;6.97;;
77520;SDS011;66633;47.628;19.158;2024-02-26T03:16:39;13.93;;;6.50;;
77520;SDS011;66633;47.628;19.158;2024-02-26T03:19:04;14.87;;;6.97;;
77520;SDS011;66633;47.628;19.158;2024-02-26T03:21:29;11.87;;;5.93;;
77520;SDS011;66633;47.628;19.158;2024-02-26T03:23:55;14.07;;;7.10;;
77520;SDS011;66633;47.628;19.158;2024-02-26T03:26:20;15.75;;;7.88;;
77520;SDS011;66633;47.628;19.158;2024-02-26T03:28:46;16.73;;;7.53;;
77520;SDS011;66633;47.628;19.158;2024-02-26T03:31:12;16.33;;;7.85;;
77520;SDS011;66633;47.628;19.158;2024-02-26T03:33:37;15.15;;;7.57;;
77520;SDS011;66633;47.628;19.158;2024-02-26T03:36:02;19.53;;;8.50;;
77520;SDS011;66633;47.628;19.158;2024-02-26T03:38:28;21.95;;;8.70;;
77520;SDS011;66633;47.628;19.158;2024-02-26T03:40:53;19.15;;;8.38;;
77520;SDS011;66633;47.628;19.158;2024-02-26T03:43:19;18.30;;;8.00;;
77520;SDS011;66633;47.628;19.158;2024-02-26T03:45:44;20.73;;;9.67;;
77520;SDS011;66633;47.628;19.158;2024-02-26T03:48:09;21.63;;;10.10;;
77520;SDS011;66633;47.628;19.158;2024-02-26T03:50:34;16.83;;;8.32;;
77520;SDS011;66633;47.628;19.158;2024-02-26T03:53:00;20.60;;;10.43;;
77520;SDS011;66633;47.628;19.158;2024-02-26T03:55:25;17.77;;;8.37;;
77520;SDS011;66633;47.628;19.158;2024-02-26T03:57:51;16.88;;;8.93;;
77520;SDS011;66633;47.628;19.158;2024-02-26T04:00:16;19.38;;;9.18;;
77520;SDS011;66633;47.628;19.158;2024-02-26T04:02:41;19.48;;;9.50;;
77520;SDS011;66633;47.628;19.158;2024-02-26T04:05:10;17.85;;;8.48;;
77520;SDS011;66633;47.628;19.158;2024-02-26T04:07:35;17.48;;;8.40;;
77520;SDS011;66633;47.628;19.158;2024-02-26T04:10:01;17.85;;;9.18;;
77520;SDS011;66633;47.628;19.158;2024-02-26T04:12:28;22.50;;;10.38;;
77520;SDS011;66633;47.628;19.158;2024-02-26T04:14:53;19.50;;;9.03;;
77520;SDS011;66633;47.628;19.158;2024-02-26T04:17:19;20.53;;;8.93;;
77520;SDS011;66633;47.628;19.158;2024-02-26T04:19:44;22.10;;;9.93;;
77520;SDS011;66633;47.628;19.158;2024-02-26T04:22:10;21.60;;;9.05;;
77520;SDS011;66633;47.628;19.158;2024-02-26T04:24:36;20.35;;;9.43;;
77520;SDS011;66633;47.628;19.158;2024-02-26T04:27:01;21.65;;;10.18;;
77520;SDS011;66633;47.628;19.158;2024-02-26T04:29:26;22.07;;;9.80;;
77520;SDS011;66633;47.628;19.158;2024-02-26T04:31:51;20.50;;;10.33;;
77520;SDS011;66633;47.628;19.158;2024-02-26T04:34:17;20.23;;;10.00;;
77520;SDS011;66633;47.628;19.158;2024-02-26T04:36:42;24.23;;;11.40;;
77520;SDS011;66633;47.628;19.158;2024-02-26T04:39:07;22.43;;;12.20;;
77520;SDS011;66633;47.628;19.158;2024-02-26T04:41:33;22.35;;;10.85;;
77520;SDS011;66633;47.628;19.158;2024-02-26T04:43:58;21.27;;;9.80;;
77520;SDS011;66633;47.628;19.158;2024-02-26T04:46:23;25.10;;;10.90;;
77520;SDS011;66633;47.628;19.158;2024-02-26T04:48:48;24.02;;;11.35;;
77520;SDS011;66633;47.628;19.158;2024-02-26T04:51:14;22.02;;;10.20;;
77520;SDS011;66633;47.628;19.158;2024-02-26T04:53:39;20.23;;;9.87;;
77520;SDS011;66633;47.628;19.158;2024-02-26T04:56:04;22.17;;;10.67;;
77520;SDS011;66633;47.628;19.158;2024-02-26T04:58:30;19.13;;;9.13;;
77520;SDS011;66633;47.628;19.158;2024-02-26T05:00:55;21.00;;;9.27;;
77520;SDS011;66633;47.628;19.158;2024-02-26T05:03:21;20.27;;;8.93;;
77520;SDS011;66633;47.628;19.158;2024-02-26T05:05:46;20.30;;;9.10;;
77520;SDS011;66633;47.628;19.158;2024-02-26T05:08:12;17.73;;;8.65;;
77520;SDS011;66633;47.628;19.158;2024-02-26T05:10:37;17.38;;;7.90;;
77520;SDS011;66633;47.628;19.158;2024-02-26T05:13:05;16.70;;;8.30;;
77520;SDS011;66633;47.628;19.158;2024-02-26T05:15:30;16.00;;;7.30;;
77520;SDS011;66633;47.628;19.158;2024-02-26T05:17:55;20.33;;;9.73;;
77520;SDS011;66633;47.628;19.158;2024-02-26T05:20:21;19.63;;;9.57;;
77520;SDS011;66633;47.628;19.158;2024-02-26T05:22:46;19.03;;;8.47;;
77520;SDS011;66633;47.628;19.158;2024-02-26T05:25:14;21.65;;;9.85;;
77520;SDS011;66633;47.628;19.158;2024-02-26T05:27:39;19.30;;;9.25;;
77520;SDS011;66633;47.628;19.158;2024-02-26T05:36:10;25.55;;;9.98;;
77520;SDS011;66633;47.628;19.158;2024-02-26T05:38:42;24.42;;;10.80;;
77520;SDS011;66633;47.628;19.158;2024-02-26T05:41:07;19.77;;;9.53;;
77520;SDS011;66633;47.628;19.158;2024-02-26T05:43:33;21.40;;;9.90;;
77520;SDS011;66633;47.628;19.158;2024-02-26T05:45:58;23.00;;;9.80;;
77520;SDS011;66633;47.628;19.158;2024-02-26T05:48:23;24.37;;;11.00;;
77520;SDS011;66633;47.628;19.158;2024-02-26T05:50:48;23.67;;;9.97;;
77520;SDS011;66633;47.628;19.158;2024-02-26T05:53:14;24.77;;;11.33;;
77520;SDS011;66633;47.628;19.158;2024-02-26T05:55:39;23.83;;;10.75;;
77520;SDS011;66633;47.628;19.158;2024-02-26T05:58:04;22.93;;;11.17;;
77520;SDS011;66633;47.628;19.158;2024-02-26T06:00:30;21.80;;;9.10;;
77520;SDS011;66633;47.628;19.158;2024-02-26T06:02:55;21.80;;;10.60;;
77520;SDS011;66633;47.628;19.158;2024-02-26T06:05:20;19.73;;;8.80;;
77520;SDS011;66633;47.628;19.158;2024-02-26T06:07:46;19.57;;;9.00;;
77520;SDS011;66633;47.628;19.158;2024-02-26T06:10:11;19.37;;;8.87;;
77520;SDS011;66633;47.628;19.158;2024-02-26T06:12:38;24.58;;;9.75;;
77520;SDS011;66633;47.628;19.158;2024-02-26T06:15:04;19.23;;;8.87;;
77520;SDS011;66633;47.628;19.158;2024-02-26T06:17:29;22.20;;;9.40;;
77520;SDS011;66633;47.628;19.158;2024-02-26T06:19:54;20.10;;;9.27;;
77520;SDS011;66633;47.628;19.158;2024-02-26T06:22:19;20.55;;;9.43;;
77520;SDS011;66633;47.628;19.158;2024-02-26T06:24:45;17.97;;;8.10;;
77520;SDS011;66633;47.628;19.158;2024-02-26T06:27:10;18.80;;;8.90;;
77520;SDS011;66633;47.628;19.158;2024-02-26T06:29:35;20.97;;;9.83;;
77520;SDS011;66633;47.628;19.158;2024-02-26T06:32:00;19.87;;;9.43;;
77520;SDS011;66633;47.628;19.158;2024-02-26T06:34:26;21.47;;;9.63;;
77520;SDS011;66633;47.628;19.158;2024-02-26T06:36:51;22.07;;;10.70;;
77520;SDS011;66633;47.628;19.158;2024-02-26T06:39:16;23.33;;;11.37;;
77520;SDS011;66633;47.628;19.158;2024-02-26T06:41:43;23.55;;;11.13;;
77520;SDS011;66633;47.628;19.158;2024-02-26T06:44:08;22.85;;;10.50;;
77520;SDS011;66633;47.628;19.158;2024-02-26T06:46:33;23.17;;;10.37;;
77520;SDS011;66633;47.628;19.158;2024-02-26T06:48:58;19.83;;;10.25;;
77520;SDS011;66633;47.628;19.158;2024-02-26T06:51:24;21.48;;;10.55;;
77520;SDS011;66633;47.628;19.158;2024-02-26T06:53:49;24.47;;;12.00;;
77520;SDS011;66633;47.628;19.158;2024-02-26T06:56:15;24.02;;;12.50;;
77520;SDS011;66633;47.628;19.158;2024-02-26T06:58:40;24.63;;;12.93;;
77520;SDS011;66633;47.628;19.158;2024-02-26T07:01:05;24.92;;;13.15;;
77520;SDS011;66633;47.628;19.158;2024-02-26T07:03:33;29.35;;;14.57;;
77520;SDS011;66633;47.628;19.158;2024-02-26T07:05:58;30.40;;;15.43;;
77520;SDS011;66633;47.628;19.158;2024-02-26T07:08:24;27.25;;;14.60;;
77520;SDS011;66633;47.628;19.158;2024-02-26T07:10:49;28.70;;;15.47;;
77520;SDS011;66633;47.628;19.158;2024-02-26T07:13:14;28.60;;;14.50;;
77520;SDS011;66633;47.628;19.158;2024-02-26T07:15:39;27.47;;;14.87;;
77520;SDS011;66633;47.628;19.158;2024-02-26T07:18:05;28.53;;;15.33;;
77520;SDS011;66633;47.628;19.158;2024-02-26T07:20:30;29.97;;;16.10;;
77520;SDS011;66633;47.628;19.158;2024-02-26T07:22:56;28.92;;;15.00;;
77520;SDS011;66633;47.628;19.158;2024-02-26T07:25:21;34.25;;;18.02;;
77520;SDS011;66633;47.628;19.158;2024-02-26T07:27:46;30.92;;;15.93;;
77520;SDS011;66633;47.628;19.158;2024-02-26T07:30:12;33.67;;;18.37;;
77520;SDS011;66633;47.628;19.158;2024-02-26T07:32:37;35.35;;;19.17;;
77520;SDS011;66633;47.628;19.158;2024-02-26T07:35:03;37.25;;;18.83;;
77520;SDS011;66633;47.628;19.158;2024-02-26T07:37:28;34.53;;;17.58;;
77520;SDS011;66633;47.628;19.158;2024-02-26T07:39:53;36.83;;;18.77;;
77520;SDS011;66633;47.628;19.158;2024-02-26T07:42:19;34.42;;;18.45;;
77520;SDS011;66633;47.628;19.158;2024-02-26T07:44:44;31.05;;;18.50;;
77520;SDS011;66633;47.628;19.158;2024-02-26T07:47:10;35.17;;;19.60;;
77520;SDS011;66633;47.628;19.158;2024-02-26T07:49:35;31.30;;;17.25;;
77520;SDS011;66633;47.628;19.158;2024-02-26T07:52:00;34.80;;;19.05;;
77520;SDS011;66633;47.628;19.158;2024-02-26T07:54:26;30.98;;;17.67;;
77520;SDS011;66633;47.628;19.158;2024-02-26T07:56:51;34.90;;;17.27;;
77520;SDS011;66633;47.628;19.158;2024-02-26T07:59:16;28.85;;;16.33;;
77520;SDS011;66633;47.628;19.158;2024-02-26T08:01:41;27.77;;;16.27;;
77520;SDS011;66633;47.628;19.158;2024-02-26T08:04:07;30.13;;;16.95;;
77520;SDS011;66633;47.628;19.158;2024-02-26T08:06:32;28.33;;;15.85;;
77520;SDS011;66633;47.628;19.158;2024-02-26T08:08:57;29.23;;;15.93;;
77520;SDS011;66633;47.628;19.158;2024-02-26T08:11:23;29.00;;;17.03;;
77520;SDS011;66633;47.628;19.158;2024-02-26T08:13:48;30.23;;;17.27;;
77520;SDS011;66633;47.628;19.158;2024-02-26T08:16:13;27.80;;;16.63;;
77520;SDS011;66633;47.628;19.158;2024-02-26T08:18:38;29.95;;;18.30;;
77520;SDS011;66633;47.628;19.158;2024-02-26T08:21:04;30.80;;;18.80;;
77520;SDS011;66633;47.628;19.158;2024-02-26T08:23:29;33.03;;;19.00;;
77520;SDS011;66633;47.628;19.158;2024-02-26T08:25:56;32.63;;;20.27;;
77520;SDS011;66633;47.628;19.158;2024-02-26T08:28:21;32.97;;;19.67;;
77520;SDS011;66633;47.628;19.158;2024-02-26T08:30:46;36.00;;;20.33;;
77520;SDS011;66633;47.628;19.158;2024-02-26T08:33:11;34.43;;;20.10;;
77520;SDS011;66633;47.628;19.158;2024-02-26T08:35:38;35.33;;;22.67;;
77520;SDS011;66633;47.628;19.158;2024-02-26T08:38:03;36.40;;;21.05;;
77520;SDS011;66633;47.628;19.158;2024-02-26T08:40:29;38.30;;;21.47;;
77520;SDS011;66633;47.628;19.158;2024-02-26T08:42:54;36.50;;;22.52;;
77520;SDS011;66633;47.628;19.158;2024-02-26T08:45:20;36.30;;;21.90;;
77520;SDS011;66633;47.628;19.158;2024-02-26T08:47:45;38.22;;;23.55;;
77520;SDS011;66633;47.628;19.158;2024-02-26T08:50:11;41.75;;;25.25;;
77520;SDS011;66633;47.628;19.158;2024-02-26T08:52:37;37.20;;;22.55;;
77520;SDS011;66633;47.628;19.158;2024-02-26T08:55:02;37.22;;;23.80;;
77520;SDS011;66633;47.628;19.158;2024-02-26T08:57:28;41.00;;;23.83;;
77520;SDS011;66633;47.628;19.158;2024-02-26T08:59:53;37.20;;;23.87;;
77520;SDS011;66633;47.628;19.158;2024-02-26T09:02:18;39.83;;;24.83;;
77520;SDS011;66633;47.628;19.158;2024-02-26T09:04:45;39.42;;;23.77;;
77520;SDS011;66633;47.628;19.158;2024-02-26T09:07:10;37.90;;;24.42;;
77520;SDS011;66633;47.628;19.158;2024-02-26T09:09:35;35.53;;;23.20;;
77520;SDS011;66633;47.628;19.158;2024-02-26T09:12:01;37.45;;;23.55;;
77520;SDS011;66633;47.628;19.158;2024-02-26T09:14:26;38.50;;;23.30;;
77520;SDS011;66633;47.628;19.158;2024-02-26T09:16:51;38.27;;;24.97;;
77520;SDS011;66633;47.628;19.158;2024-02-26T09:19:17;38.33;;;23.92;;
77520;SDS011;66633;47.628;19.158;2024-02-26T09:21:45;41.53;;;25.70;;
77520;SDS011;66633;47.628;19.158;2024-02-26T09:24:11;36.22;;;22.70;;
77520;SDS011;66633;47.628;19.158;2024-02-26T09:26:36;42.50;;;27.00;;
77520;SDS011;66633;47.628;19.158;2024-02-26T09:29:02;39.42;;;25.77;;
77520;SDS011;66633;47.628;19.158;2024-02-26T09:31:27;39.43;;;26.00;;
77520;SDS011;66633;47.628;19.158;2024-02-26T09:33:52;43.97;;;27.50;;
77520;SDS011;66633;47.628;19.158;2024-02-26T09:36:17;43.17;;;27.67;;
77520;SDS011;66633;47.628;19.158;2024-02-26T09:38:42;47.00;;;26.83;;
77520;SDS011;66633;47.628;19.158;2024-02-26T09:41:12;43.70;;;29.25;;
77520;SDS011;66633;47.628;19.158;2024-02-26T09:43:39;44.72;;;29.10;;
77520;SDS011;66633;47.628;19.158;2024-02-26T09:46:07;42.67;;;26.92;;
77520;SDS011;66633;47.628;19.158;2024-02-26T09:48:33;41.42;;;26.55;;
77520;SDS011;66633;47.628;19.158;2024-02-26T09:50:59;42.42;;;27.70;;
77520;SDS011;66633;47.628;19.158;2024-02-26T09:53:25;45.05;;;27.42;;
77520;SDS011;66633;47.628;19.158;2024-02-26T09:55:51;42.72;;;27.42;;
77520;SDS011;66633;47.628;19.158;2024-02-26T09:58:17;40.13;;;25.50;;
77520;SDS011;66633;47.628;19.158;2024-02-26T10:00:45;37.88;;;26.40;;
77520;SDS011;66633;47.628;19.158;2024-02-26T10:03:13;40.63;;;26.70;;
77520;SDS011;66633;47.628;19.158;2024-02-26T10:05:39;41.28;;;26.48;;
77520;SDS011;66633;47.628;19.158;2024-02-26T10:08:06;39.42;;;26.77;;
77520;SDS011;66633;47.628;19.158;2024-02-26T10:10:31;40.50;;;26.60;;
77520;SDS011;66633;47.628;19.158;2024-02-26T10:12:59;39.10;;;26.08;;
77520;SDS011;66633;47.628;19.158;2024-02-26T10:15:24;40.72;;;25.80;;
77520;SDS011;66633;47.628;19.158;2024-02-26T10:17:49;36.05;;;24.17;;
77520;SDS011;66633;47.628;19.158;2024-02-26T10:20:16;45.30;;;26.85;;
77520;SDS011;66633;47.628;19.158;2024-02-26T10:22:42;39.90;;;24.42;;
77520;SDS011;66633;47.628;19.158;2024-02-26T10:25:08;37.67;;;25.40;;
77520;SDS011;66633;47.628;19.158;2024-02-26T10:27:33;38.83;;;26.05;;
77520;SDS011;66633;47.628;19.158;2024-02-26T10:29:59;39.30;;;26.00;;
77520;SDS011;66633;47.628;19.158;2024-02-26T10:32:27;34.78;;;21.90;;
77520;SDS011;66633;47.628;19.158;2024-02-26T10:34:55;33.53;;;22.98;;
77520;SDS011;66633;47.628;19.158;2024-02-26T10:37:21;32.25;;;21.73;;
77520;SDS011;66633;47.628;19.158;2024-02-26T10:39:47;32.40;;;21.00;;
77520;SDS011;66633;47.628;19.158;2024-02-26T10:42:12;31.67;;;21.90;;
77520;SDS011;66633;47.628;19.158;2024-02-26T10:44:39;34.53;;;22.03;;
77520;SDS011;66633;47.628;19.158;2024-02-26T10:47:05;35.40;;;23.10;;
77520;SDS011;66633;47.628;19.158;2024-02-26T10:49:30;33.22;;;22.98;;
77520;SDS011;66633;47.628;19.158;2024-02-26T10:51:56;32.67;;;22.85;;
77520;SDS011;66633;47.628;19.158;2024-02-26T10:54:25;33.90;;;21.88;;
77520;SDS011;66633;47.628;19.158;2024-02-26T10:56:52;29.73;;;21.38;;
77520;SDS011;66633;47.628;19.158;2024-02-26T10:59:19;30.85;;;20.45;;
77520;SDS011;66633;47.628;19.158;2024-02-26T11:01:46;33.40;;;21.10;;
77520;SDS011;66633;47.628;19.158;2024-02-26T11:04:12;29.83;;;20.67;;
77520;SDS011;66633;47.628;19.158;2024-02-26T11:06:38;28.73;;;20.30;;
77520;SDS011;66633;47.628;19.158;2024-02-26T11:09:03;30.77;;;20.23;;
77520;SDS011;66633;47.628;19.158;2024-02-26T11:11:30;30.02;;;21.05;;
77520;SDS011;66633;47.628;19.158;2024-02-26T11:13:56;26.98;;;19.80;;
77520;SDS011;66633;47.628;19.158;2024-02-26T11:16:23;28.95;;;20.10;;
77520;SDS011;66633;47.628;19.158;2024-02-26T11:18:48;25.85;;;19.33;;
77520;SDS011;66633;47.628;19.158;2024-02-26T11:21:17;24.65;;;16.85;;
77520;SDS011;66633;47.628;19.158;2024-02-26T11:23:52;24.90;;;17.40;;
77520;SDS011;66633;47.628;19.158;2024-02-26T11:26:17;25.27;;;17.50;;
77520;SDS011;66633;47.628;19.158;2024-02-26T11:28:43;26.88;;;18.98;;
77520;SDS011;66633;47.628;19.158;2024-02-26T11:31:09;24.88;;;17.75;;
77520;SDS011;66633;47.628;19.158;2024-02-26T11:33:35;25.30;;;17.60;;
77520;SDS011;66633;47.628;19.158;2024-02-26T11:36:09;25.98;;;19.70;;
77520;SDS011;66633;47.628;19.158;2024-02-26T11:38:35;24.90;;;17.33;;
77520;SDS011;66633;47.628;19.158;2024-02-26T11:41:00;24.20;;;17.17;;
77520;SDS011;66633;47.628;19.158;2024-02-26T11:46:32;20.40;;;14.23;;
77520;SDS011;66633;47.628;19.158;2024-02-26T11:49:02;21.38;;;14.70;;
77520;SDS011;66633;47.628;19.158;2024-02-26T11:51:28;20.05;;;15.30;;
77520;SDS011;66633;47.628;19.158;2024-02-26T11:53:56;23.20;;;15.88;;
77520;SDS011;66633;47.628;19.158;2024-02-26T11:56:22;20.27;;;14.63;;
77520;SDS011;66633;47.628;19.158;2024-02-26T11:58:48;22.02;;;16.33;;
77520;SDS011;66633;47.628;19.158;2024-02-26T12:03:58;24.65;;;16.55;;
77520;SDS011;66633;47.628;19.158;2024-02-26T12:06:23;22.67;;;16.77;;
77520;SDS011;66633;47.628;19.158;2024-02-26T12:08:50;21.92;;;16.27;;
77520;SDS011;66633;47.628;19.158;2024-02-26T12:11:18;20.95;;;15.63;;
77520;SDS011;66633;47.628;19.158;2024-02-26T12:13:47;20.90;;;15.88;;
77520;SDS011;66633;47.628;19.158;2024-02-26T12:16:14;21.20;;;14.52;;
77520;SDS011;66633;47.628;19.158;2024-02-26T12:18:59;18.23;;;14.13;;
77520;SDS011;66633;47.628;19.158;2024-02-26T12:21:24;18.88;;;14.13;;
77520;SDS011;66633;47.628;19.158;2024-02-26T12:23:50;19.47;;;12.87;;
77520;SDS011;66633;47.628;19.158;2024-02-26T12:26:15;18.03;;;13.73;;
77520;SDS011;66633;47.628;19.158;2024-02-26T12:28:40;21.00;;;14.53;;
77520;SDS011;66633;47.628;19.158;2024-02-26T12:31:06;16.77;;;13.25;;
77520;SDS011;66633;47.628;19.158;2024-02-26T12:33:31;17.55;;;12.68;;
77520;SDS011;66633;47.628;19.158;2024-02-26T12:35:56;19.38;;;13.48;;
77520;SDS011;66633;47.628;19.158;2024-02-26T12:38:23;21.40;;;14.00;;
77520;SDS011;66633;47.628;19.158;2024-02-26T12:40:49;17.63;;;11.77;;
77520;SDS011;66633;47.628;19.158;2024-02-26T12:43:14;17.27;;;11.80;;
77520;SDS011;66633;47.628;19.158;2024-02-26T12:45:40;19.05;;;11.23;;
77520;SDS011;66633;47.628;19.158;2024-02-26T12:48:06;17.55;;;11.95;;
77520;SDS011;66633;47.628;19.158;2024-02-26T12:50:31;16.75;;;12.13;;
77520;SDS011;66633;47.628;19.158;2024-02-26T12:52:57;15.10;;;11.30;;
77520;SDS011;66633;47.628;19.158;2024-02-26T12:55:23;15.25;;;10.93;;
77520;SDS011;66633;47.628;19.158;2024-02-26T12:57:48;14.55;;;10.75;;
77520;SDS011;66633;47.628;19.158;2024-02-26T13:00:15;17.13;;;11.73;;
77520;SDS011;66633;47.628;19.158;2024-02-26T13:02:41;15.68;;;11.52;;
77520;SDS011;66633;47.628;19.158;2024-02-26T13:05:10;15.82;;;11.10;;
77520;SDS011;66633;47.628;19.158;2024-02-26T13:07:43;16.13;;;10.43;;
77520;SDS011;66633;47.628;19.158;2024-02-26T13:10:08;14.93;;;10.35;;
77520;SDS011;66633;47.628;19.158;2024-02-26T13:12:34;12.65;;;9.38;;
77520;SDS011;66633;47.628;19.158;2024-02-26T13:15:00;13.10;;;9.70;;
77520;SDS011;66633;47.628;19.158;2024-02-26T13:17:25;14.68;;;10.05;;
77520;SDS011;66633;47.628;19.158;2024-02-26T13:19:52;13.90;;;9.52;;
77520;SDS011;66633;47.628;19.158;2024-02-26T13:22:20;12.85;;;9.57;;
77520;SDS011;66633;47.628;19.158;2024-02-26T13:24:45;12.32;;;8.95;;
77520;SDS011;66633;47.628;19.158;2024-02-26T13:27:24;10.23;;;7.38;;
77520;SDS011;66633;47.628;19.158;2024-02-26T13:30:10;11.50;;;8.05;;
77520;SDS011;66633;47.628;19.158;2024-02-26T13:32:39;13.23;;;7.85;;
77520;SDS011;66633;47.628;19.158;2024-02-26T13:35:11;10.32;;;7.30;;
77520;SDS011;66633;47.628;19.158;2024-02-26T13:37:37;10.52;;;7.05;;
77520;SDS011;66633;47.628;19.158;2024-02-26T13:40:06;10.15;;;6.68;;
77520;SDS011;66633;47.628;19.158;2024-02-26T13:42:33;10.43;;;6.80;;
77520;SDS011;66633;47.628;19.158;2024-02-26T13:44:58;10.88;;;7.18;;
77520;SDS011;66633;47.628;19.158;2024-02-26T13:47:24;8.37;;;5.67;;
77520;SDS011;66633;47.628;19.158;2024-02-26T13:49:49;8.02;;;5.35;;
77520;SDS011;66633;47.628;19.158;2024-02-26T13:52:15;8.65;;;5.22;;
77520;SDS011;66633;47.628;19.158;2024-02-26T13:54:40;6.90;;;4.53;;
77520;SDS011;66633;47.628;19.158;2024-02-26T13:57:05;9.05;;;4.75;;
77520;SDS011;66633;47.628;19.158;2024-02-26T13:59:31;8.02;;;5.07;;
77520;SDS011;66633;47.628;19.158;2024-02-26T14:01:56;8.75;;;5.40;;
77520;SDS011;66633;47.628;19.158;2024-02-26T14:04:22;8.40;;;5.18;;
77520;SDS011;66633;47.628;19.158;2024-02-26T14:06:47;9.17;;;5.67;;
77520;SDS011;66633;47.628;19.158;2024-02-26T14:09:12;7.28;;;5.20;;
77520;SDS011;66633;47.628;19.158;2024-02-26T14:11:43;9.10;;;6.13;;
77520;SDS011;66633;47.628;19.158;2024-02-26T14:14:08;9.65;;;6.35;;
77520;SDS011;66633;47.628;19.158;2024-02-26T14:16:34;11.07;;;7.00;;